Time;durP1;ratioP1;P1;durP2;ratioP2;P2;SDS_P1;SDS_P2;PMS_P1;PMS_P2;Temp;Humidity;BMP_temperature;BMP_pressure;BME280_temperature;BME280_humidity;BME280_pressure;Samples;Min_cycle;Max_cycle;Signal;HPM_P1;HPM_P2
2021/12/19 00:01:07;;;;;;;14.30;8.13;;;;;;;;;;5033040;28;20215;-29
2021/12/19 00:09:10;;;;;;;13.90;8.30;;;;;;;;;;5014547;28;20052;-29
2021/12/19 00:11:36;;;;;;;13.52;8.10;;;;;;;;;;5032283;28;20418;-29
2021/12/19 00:14:03;;;;;;;15.25;7.97;;;;;;;;;;5031953;28;20395;-29
2021/12/19 00:16:29;;;;;;;12.85;7.45;;;;;;;;;;5032485;28;20068;-29
2021/12/19 00:18:55;;;;;;;12.48;7.07;;;;;;;;;;5032552;28;20029;-29
2021/12/19 00:21:22;;;;;;;10.40;6.70;;;;;;;;;;5032218;28;20435;-29
2021/12/19 00:23:49;;;;;;;11.35;6.53;;;;;;;;;;5031724;28;20033;-29
2021/12/19 00:26:16;;;;;;;9.55;6.07;;;;;;;;;;5031521;28;20048;-29
2021/12/19 00:28:42;;;;;;;10.73;6.30;;;;;;;;;;5031174;28;20549;-29
2021/12/19 00:31:08;;;;;;;10.70;6.57;;;;;;;;;;5031837;28;20042;-29
2021/12/19 00:33:34;;;;;;;13.13;6.65;;;;;;;;;;5013830;28;20049;-29
2021/12/19 00:36:01;;;;;;;11.93;7.20;;;;;;;;;;5032159;28;20059;-29
2021/12/19 00:38:27;;;;;;;13.20;6.63;;;;;;;;;;5031819;28;20522;-29
2021/12/19 00:40:53;;;;;;;11.85;7.10;;;;;;;;;;5030813;28;20557;-29
2021/12/19 00:43:35;;;;;;;13.50;7.53;;;;;;;;;;5030764;28;20041;-29
2021/12/19 00:46:06;;;;;;;13.07;6.53;;;;;;;;;;5030698;28;20088;-29
2021/12/19 00:48:33;;;;;;;9.75;5.90;;;;;;;;;;5013387;28;20107;-29
2021/12/19 00:50:59;;;;;;;10.68;6.55;;;;;;;;;;5029486;28;20453;-29
2021/12/19 00:53:25;;;;;;;11.80;6.57;;;;;;;;;;5029882;28;20050;-29
2021/12/19 00:55:51;;;;;;;11.25;6.65;;;;;;;;;;5029723;28;20179;-29
2021/12/19 00:58:17;;;;;;;13.75;7.13;;;;;;;;;;5011853;28;20034;-29
2021/12/19 01:00:43;;;;;;;11.10;6.15;;;;;;;;;;5030473;28;20033;-29
2021/12/19 01:03:09;;;;;;;11.10;6.65;;;;;;;;;;5030084;28;20052;-29
2021/12/19 01:05:37;;;;;;;13.98;7.18;;;;;;;;;;5012903;28;20758;-29
2021/12/19 01:08:04;;;;;;;14.13;7.53;;;;;;;;;;5029997;28;20049;-29
2021/12/19 01:10:30;;;;;;;13.55;7.18;;;;;;;;;;5012849;28;20486;-29
2021/12/19 01:12:56;;;;;;;13.52;7.30;;;;;;;;;;5029888;28;20041;-29
2021/12/19 01:15:22;;;;;;;12.98;7.32;;;;;;;;;;5012502;28;20051;-29
2021/12/19 01:17:49;;;;;;;15.52;8.48;;;;;;;;;;5030226;28;20038;-29
2021/12/19 01:20:17;;;;;;;13.77;7.63;;;;;;;;;;5012826;28;20461;-29
2021/12/19 01:22:44;;;;;;;16.90;7.93;;;;;;;;;;5029725;28;20289;-29
2021/12/19 01:25:12;;;;;;;15.63;8.48;;;;;;;;;;5028451;28;20041;-30
2021/12/19 01:27:38;;;;;;;16.42;8.30;;;;;;;;;;5029679;28;20092;-30
2021/12/19 01:30:06;;;;;;;15.70;8.00;;;;;;;;;;5029938;28;20124;-29
2021/12/19 01:32:32;;;;;;;14.00;7.57;;;;;;;;;;5028155;28;20041;-30
2021/12/19 01:34:58;;;;;;;15.23;8.43;;;;;;;;;;5029136;28;20100;-29
2021/12/19 01:37:24;;;;;;;16.23;8.38;;;;;;;;;;5011719;28;20124;-29
2021/12/19 01:39:50;;;;;;;19.13;8.50;;;;;;;;;;5029826;28;20570;-29
2021/12/19 01:42:19;;;;;;;17.75;9.13;;;;;;;;;;5011915;28;20106;-29
2021/12/19 01:44:46;;;;;;;15.82;7.88;;;;;;;;;;5029389;28;20414;-29
2021/12/19 01:47:12;;;;;;;12.27;6.05;;;;;;;;;;5029177;28;20479;-29
2021/12/19 01:49:38;;;;;;;8.27;4.95;;;;;;;;;;5028948;28;20406;-29
2021/12/19 01:52:04;;;;;;;7.25;4.57;;;;;;;;;;5029530;28;20048;-29
2021/12/19 01:54:30;;;;;;;8.00;3.67;;;;;;;;;;5028680;28;20042;-29
2021/12/19 01:57:02;;;;;;;8.70;3.47;;;;;;;;;;5029298;28;20048;-29
2021/12/19 01:59:29;;;;;;;6.00;3.35;;;;;;;;;;5011563;28;20400;-29
2021/12/19 02:01:55;;;;;;;6.47;3.47;;;;;;;;;;5029070;28;20080;-29
2021/12/19 02:04:23;;;;;;;4.85;3.00;;;;;;;;;;5028266;28;20052;-29
2021/12/19 02:06:49;;;;;;;5.05;3.13;;;;;;;;;;5028754;28;20522;-29
2021/12/19 02:09:16;;;;;;;5.18;2.95;;;;;;;;;;5028911;28;20402;-29
2021/12/19 02:11:42;;;;;;;6.10;3.70;;;;;;;;;;5027879;28;20128;-30
2021/12/19 02:14:09;;;;;;;7.45;3.30;;;;;;;;;;5028470;28;20490;-30
2021/12/19 02:16:37;;;;;;;10.13;4.30;;;;;;;;;;5028803;28;20033;-27
2021/12/19 02:19:03;;;;;;;8.82;4.60;;;;;;;;;;5029581;28;20419;-27
2021/12/19 02:21:29;;;;;;;8.15;4.63;;;;;;;;;;5058325;23;20670;-87
2021/12/19 02:23:59;;;;;;;9.65;4.65;;;;;;;;;;5033857;28;20040;-87
2021/12/19 02:26:25;;;;;;;8.40;4.10;;;;;;;;;;5017034;28;20132;-86
2021/12/19 02:28:51;;;;;;;3.75;2.55;;;;;;;;;;5033835;28;20067;-86
2021/12/19 02:31:17;;;;;;;3.10;2.35;;;;;;;;;;5017032;28;20032;-86
2021/12/19 02:33:57;;;;;;;3.00;1.95;;;;;;;;;;5053742;28;20104;-87
2021/12/19 02:36:38;;;;;;;3.30;2.25;;;;;;;;;;5043601;28;20033;-87
2021/12/19 02:39:31;;;;;;;2.65;1.80;;;;;;;;;;5018855;28;20041;-87
2021/12/19 02:50:12;;;;;;;4.43;2.10;;;;;;;;;;5033819;28;20139;-87
2021/12/19 02:52:38;;;;;;;4.40;2.00;;;;;;;;;;5033643;28;20146;-87
2021/12/19 02:55:06;;;;;;;3.92;1.88;;;;;;;;;;5033079;28;20041;-86
2021/12/19 02:57:32;;;;;;;2.28;1.38;;;;;;;;;;5017148;28;20399;-87
2021/12/19 02:59:58;;;;;;;2.95;1.23;;;;;;;;;;5038234;28;20028;-87
2021/12/19 03:02:25;;;;;;;1.17;0.80;;;;;;;;;;5059345;28;20045;-86
2021/12/19 03:04:52;;;;;;;1.10;0.85;;;;;;;;;;5053558;28;20041;-86
2021/12/19 03:07:18;;;;;;;1.05;0.88;;;;;;;;;;5018799;28;20123;-86
2021/12/19 03:10:06;;;;;;;1.38;0.85;;;;;;;;;;5017617;28;20099;-86
2021/12/19 03:12:59;;;;;;;2.47;0.90;;;;;;;;;;5033659;28;20567;-86
2021/12/19 03:18:12;;;;;;;1.50;1.02;;;;;;;;;;5034929;28;20091;-86
2021/12/19 03:20:39;;;;;;;1.75;1.08;;;;;;;;;;5020720;28;20044;-86
2021/12/19 03:23:06;;;;;;;1.77;1.08;;;;;;;;;;5036740;28;20128;-87
2021/12/19 03:25:33;;;;;;;3.63;1.40;;;;;;;;;;5020294;28;20041;-86
2021/12/19 03:28:00;;;;;;;3.78;1.48;;;;;;;;;;5036852;28;20132;-85
2021/12/19 03:30:26;;;;;;;2.58;1.30;;;;;;;;;;5036982;28;20049;-86
2021/12/19 03:32:52;;;;;;;3.42;1.55;;;;;;;;;;5036743;28;20076;-87
2021/12/19 03:35:19;;;;;;;1.60;1.20;;;;;;;;;;5020087;28;20040;-86
2021/12/19 03:37:45;;;;;;;1.85;1.20;;;;;;;;;;5037193;28;20091;-86
2021/12/19 03:40:13;;;;;;;1.15;0.95;;;;;;;;;;5020179;28;20037;-86
2021/12/19 03:42:41;;;;;;;1.95;1.05;;;;;;;;;;5036759;28;20047;-86
2021/12/19 03:45:09;;;;;;;1.95;0.98;;;;;;;;;;5036676;28;20037;-86
2021/12/19 03:47:35;;;;;;;2.33;1.20;;;;;;;;;;5036789;28;20522;-86
2021/12/19 03:50:03;;;;;;;3.05;1.27;;;;;;;;;;5020283;28;20044;-86
2021/12/19 03:52:29;;;;;;;2.60;1.30;;;;;;;;;;5036252;28;20048;-86
2021/12/19 03:54:56;;;;;;;2.85;1.30;;;;;;;;;;5036274;28;20032;-86
2021/12/19 03:57:22;;;;;;;2.20;1.20;;;;;;;;;;5036462;28;20037;-86
2021/12/19 03:59:49;;;;;;;1.85;0.90;;;;;;;;;;5036411;28;20036;-86
2021/12/19 04:02:24;;;;;;;1.17;1.02;;;;;;;;;;5036844;28;20447;-86
2021/12/19 04:04:50;;;;;;;1.42;1.23;;;;;;;;;;5036244;28;20080;-84
2021/12/19 04:07:19;;;;;;;1.23;1.10;;;;;;;;;;5019569;28;20064;-85
2021/12/19 04:09:45;;;;;;;1.83;1.20;;;;;;;;;;5019839;28;20478;-85
2021/12/19 04:12:11;;;;;;;1.02;0.90;;;;;;;;;;5019613;28;20040;-85
2021/12/19 04:14:37;;;;;;;2.20;1.40;;;;;;;;;;5035914;28;20128;-84
2021/12/19 04:17:03;;;;;;;2.95;1.45;;;;;;;;;;5019778;28;20037;-85
2021/12/19 04:19:30;;;;;;;2.42;1.38;;;;;;;;;;5036076;28;20080;-85
2021/12/19 04:21:57;;;;;;;3.55;1.67;;;;;;;;;;5035861;28;20048;-85
2021/12/19 04:24:23;;;;;;;4.03;1.90;;;;;;;;;;5019494;28;20041;-86
2021/12/19 04:26:49;;;;;;;2.22;1.50;;;;;;;;;;5035791;28;20523;-86
2021/12/19 04:29:15;;;;;;;2.28;1.70;;;;;;;;;;5019232;28;20412;-86
2021/12/19 04:31:41;;;;;;;3.88;1.60;;;;;;;;;;5024022;28;20048;-85
2021/12/19 04:34:07;;;;;;;2.28;1.30;;;;;;;;;;5030451;28;20041;-86
2021/12/19 04:36:39;;;;;;;1.75;1.33;;;;;;;;;;5016053;28;20485;-87
2021/12/19 04:55:14;;;;;;;2.35;1.30;;;;;;;;;;5015407;28;20037;-87
2021/12/19 04:57:49;;;;;;;1.83;1.17;;;;;;;;;;5015100;28;20043;-86
2021/12/19 05:00:20;;;;;;;2.47;1.40;;;;;;;;;;4999981;28;20076;-86
2021/12/19 05:02:54;;;;;;;2.17;1.40;;;;;;;;;;4999876;28;20033;-86
2021/12/19 05:16:12;;;;;;;3.20;1.55;;;;;;;;;;5040397;28;20041;-83
2021/12/19 05:18:41;;;;;;;3.22;1.83;;;;;;;;;;5022735;28;20034;-84
2021/12/19 05:21:18;;;;;;;3.00;1.70;;;;;;;;;;5055529;28;20045;-85
2021/12/19 05:26:11;;;;;;;4.95;1.95;;;;;;;;;;5029307;28;20037;-85
2021/12/19 05:28:39;;;;;;;3.85;1.83;;;;;;;;;;5015482;28;20044;-84
2021/12/19 05:31:06;;;;;;;4.22;1.80;;;;;;;;;;5016927;28;20050;-84
2021/12/19 05:33:34;;;;;;;5.53;1.73;;;;;;;;;;5018128;28;20511;-85
2021/12/19 05:46:43;;;;;;;4.78;2.10;;;;;;;;;;5015932;28;20045;-85
2021/12/19 05:49:12;;;;;;;7.57;2.20;;;;;;;;;;4999379;28;20048;-85
2021/12/19 05:51:39;;;;;;;3.08;2.10;;;;;;;;;;5015927;28;20045;-85
2021/12/19 05:54:06;;;;;;;6.25;2.25;;;;;;;;;;4999738;28;20515;-85
2021/12/19 05:56:33;;;;;;;3.17;2.05;;;;;;;;;;4999590;28;20042;-85
2021/12/19 05:58:59;;;;;;;3.88;1.90;;;;;;;;;;4999407;28;20624;-85
2021/12/19 06:01:25;;;;;;;4.57;2.03;;;;;;;;;;5002366;28;20057;-85
2021/12/19 06:03:51;;;;;;;7.15;2.50;;;;;;;;;;5009295;28;20031;-85
2021/12/19 06:06:17;;;;;;;5.25;2.30;;;;;;;;;;5026070;28;20041;-85
2021/12/19 06:08:43;;;;;;;3.95;2.10;;;;;;;;;;5016895;28;20041;-85
2021/12/19 06:11:10;;;;;;;3.72;2.33;;;;;;;;;;5034322;28;20047;-85
2021/12/19 06:13:39;;;;;;;8.10;2.50;;;;;;;;;;5038418;28;20051;-85
2021/12/19 06:16:07;;;;;;;5.40;2.60;;;;;;;;;;5043072;28;20021;-84
2021/12/19 06:18:33;;;;;;;4.38;2.05;;;;;;;;;;5039118;28;20523;-84
2021/12/19 06:20:59;;;;;;;5.50;3.00;;;;;;;;;;5020283;28;20041;-85
2021/12/19 06:23:25;;;;;;;5.50;2.42;;;;;;;;;;5018803;28;20043;-85
2021/12/19 06:25:51;;;;;;;7.20;3.08;;;;;;;;;;5035383;28;20049;-85
2021/12/19 06:28:18;;;;;;;7.60;3.78;;;;;;;;;;5026880;28;20040;-85
2021/12/19 06:30:44;;;;;;;8.40;3.55;;;;;;;;;;5025388;28;20052;-85
2021/12/19 06:33:10;;;;;;;9.88;4.22;;;;;;;;;;5017653;28;20052;-85
2021/12/19 06:35:36;;;;;;;9.57;4.25;;;;;;;;;;5034293;28;20048;-85
2021/12/19 06:38:03;;;;;;;9.15;4.47;;;;;;;;;;5017772;28;20041;-85
2021/12/19 06:40:29;;;;;;;8.82;5.35;;;;;;;;;;5017734;28;20048;-85
2021/12/19 06:42:55;;;;;;;12.70;4.97;;;;;;;;;;5039567;28;20093;-84
2021/12/19 06:45:21;;;;;;;15.30;5.38;;;;;;;;;;5044051;28;20033;-85
2021/12/19 06:47:48;;;;;;;12.23;5.65;;;;;;;;;;5021895;28;20064;-85
2021/12/19 06:50:15;;;;;;;12.52;5.93;;;;;;;;;;5020572;28;20045;-85
2021/12/19 06:52:42;;;;;;;11.88;5.68;;;;;;;;;;5037600;28;20051;-85
2021/12/19 06:55:08;;;;;;;12.55;5.75;;;;;;;;;;5040735;28;20048;-85
2021/12/19 06:57:34;;;;;;;14.07;5.97;;;;;;;;;;5023349;28;20492;-84
2021/12/19 07:00:00;;;;;;;17.67;6.32;;;;;;;;;;5024952;28;20095;-85
2021/12/19 07:02:26;;;;;;;17.73;7.13;;;;;;;;;;5021274;28;20504;-85
2021/12/19 07:04:53;;;;;;;18.75;6.90;;;;;;;;;;5021205;28;20037;-85
2021/12/19 07:07:20;;;;;;;14.95;8.13;;;;;;;;;;5021170;28;20081;-85
2021/12/19 07:09:46;;;;;;;16.98;7.90;;;;;;;;;;5005075;28;20096;-85
2021/12/19 07:12:12;;;;;;;15.43;7.78;;;;;;;;;;5004716;28;20048;-85
2021/12/19 07:14:38;;;;;;;18.13;8.25;;;;;;;;;;5020172;28;20037;-84
2021/12/19 07:17:04;;;;;;;18.60;8.77;;;;;;;;;;5004388;28;20148;-85
2021/12/19 07:19:30;;;;;;;19.05;9.18;;;;;;;;;;5005006;28;20060;-85
2021/12/19 07:21:56;;;;;;;24.35;9.05;;;;;;;;;;5030678;28;20044;-85
2021/12/19 07:24:22;;;;;;;22.60;8.57;;;;;;;;;;5013878;28;20044;-85
2021/12/19 07:26:48;;;;;;;16.30;7.88;;;;;;;;;;5021930;28;20041;-85
2021/12/19 07:29:14;;;;;;;17.08;6.85;;;;;;;;;;5023262;28;20071;-85
2021/12/19 07:31:42;;;;;;;12.95;6.43;;;;;;;;;;5039343;28;20048;-85
2021/12/19 07:34:08;;;;;;;14.43;6.70;;;;;;;;;;5021563;28;20037;-85
2021/12/19 07:36:42;;;;;;;15.45;6.25;;;;;;;;;;5016006;28;20040;-85
2021/12/19 07:39:12;;;;;;;14.65;5.72;;;;;;;;;;5020814;28;20037;-85
2021/12/19 07:41:39;;;;;;;13.60;6.43;;;;;;;;;;5019725;28;20527;-85
2021/12/19 07:44:06;;;;;;;18.35;6.32;;;;;;;;;;5036720;28;20496;-85
2021/12/19 07:46:33;;;;;;;13.00;6.38;;;;;;;;;;5019792;28;20041;-86
2021/12/19 07:48:58;;;;;;;18.88;7.13;;;;;;;;;;5018046;28;20040;-85
2021/12/19 07:51:24;;;;;;;17.23;6.97;;;;;;;;;;5020251;28;20041;-85
2021/12/19 07:53:50;;;;;;;15.88;7.18;;;;;;;;;;5036005;28;20116;-85
2021/12/19 07:56:16;;;;;;;17.65;7.13;;;;;;;;;;5019945;28;20105;-85
2021/12/19 07:58:42;;;;;;;14.63;7.40;;;;;;;;;;5034483;28;20037;-86
2021/12/19 08:01:08;;;;;;;18.38;6.82;;;;;;;;;;5018527;28;20480;-86
2021/12/19 08:03:34;;;;;;;15.75;6.85;;;;;;;;;;5018194;28;20032;-86
2021/12/19 08:06:00;;;;;;;15.95;6.60;;;;;;;;;;5036074;28;20068;-86
2021/12/19 08:08:28;;;;;;;16.60;6.78;;;;;;;;;;5020533;28;20055;-86
2021/12/19 08:13:39;;;;;;;16.20;6.80;;;;;;;;;;5035781;28;20125;-86
2021/12/19 08:16:05;;;;;;;15.52;6.28;;;;;;;;;;5034193;28;20041;-86
2021/12/19 08:18:35;;;;;;;10.63;4.55;;;;;;;;;;5035345;28;20037;-86
2021/12/19 08:21:01;;;;;;;16.52;6.05;;;;;;;;;;5023475;28;20045;-86
2021/12/19 08:23:27;;;;;;;11.80;5.55;;;;;;;;;;4999698;28;20053;-86
2021/12/19 08:25:53;;;;;;;17.50;6.20;;;;;;;;;;5015968;28;20124;-86
2021/12/19 08:28:20;;;;;;;13.20;6.07;;;;;;;;;;5016234;28;20496;-86
2021/12/19 08:30:48;;;;;;;14.65;6.50;;;;;;;;;;4999939;28;20049;-86
2021/12/19 08:33:15;;;;;;;14.82;6.78;;;;;;;;;;4999611;28;20038;-86
2021/12/19 08:35:42;;;;;;;15.32;6.88;;;;;;;;;;5000393;28;20064;-86
2021/12/19 08:38:08;;;;;;;14.45;6.85;;;;;;;;;;5016891;28;20083;-86
2021/12/19 08:40:35;;;;;;;17.23;7.57;;;;;;;;;;5017703;28;20621;-86
2021/12/19 08:43:01;;;;;;;14.95;6.57;;;;;;;;;;5015366;28;20099;-86
2021/12/19 08:45:28;;;;;;;15.13;5.90;;;;;;;;;;5014589;28;20037;-86
2021/12/19 08:47:54;;;;;;;13.23;5.43;;;;;;;;;;5010900;28;20048;-86
2021/12/19 08:50:23;;;;;;;11.45;6.10;;;;;;;;;;5035404;28;20373;-86
2021/12/19 08:52:52;;;;;;;14.50;6.20;;;;;;;;;;5018298;28;20041;-86
2021/12/19 08:55:19;;;;;;;14.70;5.80;;;;;;;;;;5018384;28;20028;-86
2021/12/19 08:57:45;;;;;;;14.27;6.57;;;;;;;;;;5018361;28;20080;-86
2021/12/19 09:00:13;;;;;;;15.70;6.30;;;;;;;;;;5015426;28;20039;-86
2021/12/19 09:02:42;;;;;;;18.08;6.43;;;;;;;;;;5017734;28;20036;-86
2021/12/19 09:05:11;;;;;;;13.60;5.10;;;;;;;;;;5029815;28;20033;-86
2021/12/19 09:21:29;;;;;;;13.50;4.93;;;;;;;;;;5052903;28;20334;-86
2021/12/19 09:45:59;;;;;;;11.27;4.68;;;;;;;;;;4860029;29;20135;-86
2021/12/19 10:13:23;;;;;;;8.57;3.97;;;;;;;;;;4757968;29;20054;-86
2021/12/19 10:36:42;;;;;;;6.93;3.35;;;;;;;;;;5089949;23;20048;-34
2021/12/19 10:39:13;;;;;;;7.45;3.53;;;;;;;;;;5075889;28;20050;-37
2021/12/19 10:41:42;;;;;;;11.77;3.83;;;;;;;;;;5079614;28;20044;-34
2021/12/19 10:45:29;;;;;;;11.40;4.25;;;;;;;;;;5086528;28;20036;-36
2021/12/19 10:47:17;;;;;;;10.85;4.50;;;;;;;;;;5072506;28;20358;-36
2021/12/19 10:49:44;;;;;;;9.13;3.78;;;;;;;;;;5074939;28;20531;-34
2021/12/19 10:52:10;;;;;;;6.55;3.10;;;;;;;;;;5079405;28;20068;-35
2021/12/19 10:54:36;;;;;;;10.02;3.60;;;;;;;;;;5077296;28;20409;-37
2021/12/19 10:57:09;;;;;;;11.70;4.30;;;;;;;;;;5072924;28;20039;-34
2021/12/19 10:59:35;;;;;;;8.40;3.53;;;;;;;;;;5071437;28;20436;-35
2021/12/19 11:02:02;;;;;;;15.23;4.20;;;;;;;;;;5069955;28;20036;-33
2021/12/19 11:04:29;;;;;;;12.27;4.47;;;;;;;;;;5071042;28;20060;-35
2021/12/19 11:06:59;;;;;;;10.63;4.30;;;;;;;;;;5068607;28;20090;-35
2021/12/19 11:09:34;;;;;;;10.13;4.18;;;;;;;;;;5075396;28;20028;-35
2021/12/19 11:12:06;;;;;;;9.20;4.25;;;;;;;;;;5080050;28;20040;-32
2021/12/19 11:14:34;;;;;;;9.75;4.00;;;;;;;;;;5074432;28;20037;-32
2021/12/19 11:17:10;;;;;;;7.15;3.95;;;;;;;;;;5072809;28;20383;-30
2021/12/19 11:19:39;;;;;;;10.18;3.60;;;;;;;;;;5073918;28;20064;-31
2021/12/19 11:24:40;;;;;;;6.55;3.20;;;;;;;;;;5094838;28;20047;-29
2021/12/19 11:27:07;;;;;;;9.63;3.78;;;;;;;;;;5083265;28;20086;-29
2021/12/19 11:29:33;;;;;;;11.57;4.57;;;;;;;;;;5095832;28;20460;-30
2021/12/19 11:32:02;;;;;;;10.02;4.47;;;;;;;;;;5082993;28;20036;-29
2021/12/19 11:34:48;;;;;;;10.85;4.85;;;;;;;;;;5091655;28;20059;-29
2021/12/19 11:37:16;;;;;;;12.82;4.80;;;;;;;;;;5086773;28;20452;-29
2021/12/19 11:39:43;;;;;;;8.80;4.07;;;;;;;;;;5091669;28;20035;-29
2021/12/19 11:42:17;;;;;;;10.25;4.55;;;;;;;;;;5098079;28;20131;-29
2021/12/19 11:47:49;;;;;;;9.85;3.92;;;;;;;;;;5073572;28;20044;-29
2021/12/19 11:50:22;;;;;;;12.77;4.20;;;;;;;;;;5074000;28;20060;-29
2021/12/19 11:52:48;;;;;;;13.27;4.05;;;;;;;;;;5079895;28;20480;-28
2021/12/19 11:55:14;;;;;;;10.20;4.30;;;;;;;;;;5095661;28;20424;-28
2021/12/19 11:57:41;;;;;;;11.70;4.07;;;;;;;;;;5099361;28;20024;-30
2021/12/19 12:00:26;;;;;;;12.50;5.03;;;;;;;;;;5095556;28;20032;-28
2021/12/19 12:03:12;;;;;;;8.40;3.65;;;;;;;;;;5087346;28;20094;-28
2021/12/19 12:05:40;;;;;;;8.93;4.20;;;;;;;;;;5082001;28;20090;-28
2021/12/19 12:08:10;;;;;;;9.88;3.53;;;;;;;;;;5093590;28;20062;-27
2021/12/19 12:10:52;;;;;;;10.73;3.70;;;;;;;;;;5093905;28;20040;-26
2021/12/19 12:13:38;;;;;;;13.48;4.75;;;;;;;;;;5092978;28;20071;-27
2021/12/19 12:16:27;;;;;;;13.63;4.50;;;;;;;;;;5091607;28;20048;-27
2021/12/19 12:18:57;;;;;;;7.60;3.90;;;;;;;;;;5092629;28;20107;-27
2021/12/19 12:24:15;;;;;;;10.68;4.07;;;;;;;;;;5094385;28;20108;-29
2021/12/19 12:26:50;;;;;;;14.45;3.92;;;;;;;;;;5094145;28;20488;-30
2021/12/19 12:29:17;;;;;;;10.90;4.10;;;;;;;;;;5091919;28;20040;-29
2021/12/19 12:31:46;;;;;;;9.52;4.10;;;;;;;;;;5072183;28;20044;-29
2021/12/19 12:34:14;;;;;;;13.68;4.13;;;;;;;;;;5071716;28;20041;-29
2021/12/19 12:36:41;;;;;;;7.57;3.22;;;;;;;;;;5099677;28;20032;-31
2021/12/19 12:39:10;;;;;;;12.50;3.78;;;;;;;;;;5095081;28;20042;-29
2021/12/19 12:41:50;;;;;;;14.70;4.30;;;;;;;;;;5089444;28;20040;-29
2021/12/19 12:44:21;;;;;;;14.43;3.92;;;;;;;;;;5096830;28;20035;-29
2021/12/19 12:46:47;;;;;;;12.10;3.28;;;;;;;;;;5086593;28;20040;-29
2021/12/19 12:49:17;;;;;;;10.20;3.17;;;;;;;;;;5092519;28;20124;-29
2021/12/19 12:51:43;;;;;;;12.50;3.13;;;;;;;;;;5072176;28;20044;-30
2021/12/19 12:54:11;;;;;;;8.00;2.97;;;;;;;;;;5091161;28;20400;-31
2021/12/19 12:56:43;;;;;;;9.77;2.88;;;;;;;;;;5105025;28;20043;-31
2021/12/19 12:59:09;;;;;;;12.13;3.30;;;;;;;;;;5085457;28;20115;-28
2021/12/19 13:01:39;;;;;;;8.95;4.05;;;;;;;;;;5084529;28;20040;-28
2021/12/19 13:04:07;;;;;;;14.68;3.92;;;;;;;;;;5093213;28;20044;-28
2021/12/19 13:06:44;;;;;;;13.13;3.53;;;;;;;;;;5091064;28;20097;-28
2021/12/19 13:09:19;;;;;;;13.32;3.55;;;;;;;;;;5083959;28;20115;-28
2021/12/19 13:11:46;;;;;;;13.25;3.50;;;;;;;;;;5092094;28;20044;-29
2021/12/19 13:14:20;;;;;;;12.13;3.55;;;;;;;;;;5098288;28;20027;-29
2021/12/19 13:16:47;;;;;;;9.70;3.22;;;;;;;;;;5091774;28;20040;-29
2021/12/19 13:19:32;;;;;;;12.82;3.22;;;;;;;;;;5090401;28;20043;-29
2021/12/19 13:21:58;;;;;;;12.93;3.55;;;;;;;;;;5088297;28;20028;-29
2021/12/19 13:24:24;;;;;;;13.43;3.10;;;;;;;;;;5102957;28;20027;-29
2021/12/19 13:27:08;;;;;;;11.98;3.40;;;;;;;;;;5083713;28;20028;-29
2021/12/19 13:29:35;;;;;;;17.38;4.22;;;;;;;;;;5090784;28;20036;-29
2021/12/19 13:32:19;;;;;;;9.40;3.40;;;;;;;;;;5090406;28;20408;-29
2021/12/19 13:34:46;;;;;;;11.85;3.22;;;;;;;;;;5090625;28;20036;-29
2021/12/19 13:37:21;;;;;;;16.23;3.83;;;;;;;;;;5090929;28;20085;-29
2021/12/19 13:40:08;;;;;;;9.55;3.50;;;;;;;;;;5091518;28;20039;-29
2021/12/19 13:42:48;;;;;;;16.92;3.72;;;;;;;;;;5091512;28;20040;-29
2021/12/19 13:45:42;;;;;;;12.68;3.15;;;;;;;;;;5090642;28;20032;-29
2021/12/19 13:48:08;;;;;;;;;;;;;;;;;;5089560;28;20513;-29
2021/12/19 13:50:38;;;;;;;16.60;3.40;;;;;;;;;;5089696;28;19930;-29
2021/12/19 13:53:13;;;;;;;15.00;3.17;;;;;;;;;;5089741;28;20424;-30
2021/12/19 13:55:40;;;;;;;15.63;4.22;;;;;;;;;;5098367;28;20046;-29
2021/12/19 13:58:07;;;;;;;16.33;3.42;;;;;;;;;;5074938;28;20064;-29
2021/12/19 14:00:38;;;;;;;14.10;3.47;;;;;;;;;;5090108;28;20040;-29
2021/12/19 14:03:04;;;;;;;11.10;3.78;;;;;;;;;;5089772;28;20040;-29
2021/12/19 14:05:33;;;;;;;13.32;3.45;;;;;;;;;;5094986;28;20043;-29
2021/12/19 14:07:59;;;;;;;17.88;3.97;;;;;;;;;;5094944;28;20060;-29
2021/12/19 14:10:25;;;;;;;10.80;2.63;;;;;;;;;;5099580;28;20043;-29
2021/12/19 14:13:09;;;;;;;12.50;4.43;;;;;;;;;;5090142;28;20089;-29
2021/12/19 14:15:35;;;;;;;12.15;3.65;;;;;;;;;;5078906;28;20052;-29
2021/12/19 14:18:21;;;;;;;20.55;4.07;;;;;;;;;;5070508;28;20055;-29
2021/12/19 14:20:47;;;;;;;13.85;4.13;;;;;;;;;;5085828;28;20036;-29
2021/12/19 14:23:17;;;;;;;13.00;3.53;;;;;;;;;;5069640;28;20063;-29
2021/12/19 14:25:44;;;;;;;16.45;3.88;;;;;;;;;;5070149;28;20059;-29
2021/12/19 14:28:29;;;;;;;10.73;3.20;;;;;;;;;;5068977;28;20044;-29
2021/12/19 14:30:56;;;;;;;13.35;3.90;;;;;;;;;;5070400;28;20055;-29
2021/12/19 14:33:29;;;;;;;13.38;3.40;;;;;;;;;;5069587;28;20055;-29
2021/12/19 14:35:55;;;;;;;13.77;3.65;;;;;;;;;;5069948;28;20051;-29
2021/12/19 14:38:22;;;;;;;11.95;3.03;;;;;;;;;;5069960;28;20494;-29
2021/12/19 14:40:48;;;;;;;14.13;3.17;;;;;;;;;;5070242;28;20041;-29
2021/12/19 14:43:18;;;;;;;17.75;3.58;;;;;;;;;;5069619;28;20576;-29
2021/12/19 14:45:46;;;;;;;13.63;3.58;;;;;;;;;;5095835;28;20076;-29
2021/12/19 14:48:18;;;;;;;17.92;3.25;;;;;;;;;;5096370;28;20654;-30
2021/12/19 14:51:10;;;;;;;18.60;3.80;;;;;;;;;;5090495;28;20048;-29
2021/12/19 14:53:44;;;;;;;13.77;3.33;;;;;;;;;;5050958;28;20281;-30
2021/12/19 14:56:11;;;;;;;9.20;2.85;;;;;;;;;;5090334;28;20475;-29
2021/12/19 14:58:39;;;;;;;13.05;3.50;;;;;;;;;;5090618;28;20153;-29
2021/12/19 15:01:05;;;;;;;16.33;3.63;;;;;;;;;;5089043;28;20131;-30
2021/12/19 15:03:31;;;;;;;15.80;3.47;;;;;;;;;;5089542;28;20480;-30
2021/12/19 15:06:03;;;;;;;15.15;4.72;;;;;;;;;;5089162;28;20039;-30
2021/12/19 15:08:30;;;;;;;17.10;4.22;;;;;;;;;;5088508;28;20079;-30
2021/12/19 15:10:59;;;;;;;15.52;4.00;;;;;;;;;;5086790;28;20047;-30
2021/12/19 15:13:25;;;;;;;18.02;6.05;;;;;;;;;;5084703;28;20079;-30
2021/12/19 15:15:55;;;;;;;20.08;8.30;;;;;;;;;;5092490;28;20447;-33
2021/12/19 15:18:24;;;;;;;20.38;5.47;;;;;;;;;;5094157;28;20115;-29
2021/12/19 15:20:50;;;;;;;14.07;4.38;;;;;;;;;;5094338;28;20511;-30
2021/12/19 15:23:17;;;;;;;15.18;4.38;;;;;;;;;;5093668;28;20510;-30
2021/12/19 15:25:47;;;;;;;13.60;4.47;;;;;;;;;;5095016;28;20177;-30
2021/12/19 15:28:14;;;;;;;17.77;4.28;;;;;;;;;;5083037;28;20483;-30
2021/12/19 15:30:44;;;;;;;9.75;2.35;;;;;;;;;;5082336;28;20032;-30
2021/12/19 15:33:13;;;;;;;8.38;2.78;;;;;;;;;;5088744;28;20040;-30
2021/12/19 15:35:46;;;;;;;9.13;2.50;;;;;;;;;;5095161;28;20047;-30
2021/12/19 15:38:16;;;;;;;7.72;2.50;;;;;;;;;;5096788;28;20028;-30
2021/12/19 15:40:42;;;;;;;10.15;2.60;;;;;;;;;;5071441;28;20115;-30
2021/12/19 15:43:08;;;;;;;7.05;2.15;;;;;;;;;;5071636;28;20434;-32
2021/12/19 15:45:35;;;;;;;7.78;2.15;;;;;;;;;;5072456;28;20045;-30
2021/12/19 15:48:10;;;;;;;7.65;2.38;;;;;;;;;;5072043;28;20055;-30
2021/12/19 15:50:36;;;;;;;7.28;1.77;;;;;;;;;;5079925;28;20486;-30
2021/12/19 15:53:06;;;;;;;4.82;1.90;;;;;;;;;;5084578;28;20408;-30
2021/12/19 15:55:32;;;;;;;6.53;1.95;;;;;;;;;;5091984;28;20036;-30
2021/12/19 15:58:13;;;;;;;6.05;1.50;;;;;;;;;;5092686;28;20044;-30
2021/12/19 16:00:41;;;;;;;5.35;1.40;;;;;;;;;;5097860;28;20028;-30
2021/12/19 16:03:07;;;;;;;5.75;2.20;;;;;;;;;;5085073;28;20067;-30
2021/12/19 16:05:33;;;;;;;7.70;3.05;;;;;;;;;;5092485;28;20044;-30
2021/12/19 16:07:59;;;;;;;6.05;2.28;;;;;;;;;;5091741;28;20047;-30
2021/12/19 16:10:25;;;;;;;6.90;2.28;;;;;;;;;;5093849;28;20047;-30
2021/12/19 16:12:51;;;;;;;8.63;2.38;;;;;;;;;;5086498;28;20040;-30
2021/12/19 16:15:18;;;;;;;5.57;2.78;;;;;;;;;;5083419;28;20134;-30
2021/12/19 16:17:48;;;;;;;7.40;2.83;;;;;;;;;;5094217;28;20040;-29
2021/12/19 16:20:15;;;;;;;3.58;2.00;;;;;;;;;;5086533;28;20036;-29
2021/12/19 16:22:41;;;;;;;10.95;3.08;;;;;;;;;;5090650;28;20417;-30
2021/12/19 16:25:07;;;;;;;10.18;4.13;;;;;;;;;;5113034;28;20036;-27
2021/12/19 16:27:36;;;;;;;7.93;2.75;;;;;;;;;;5113728;28;20469;-27
2021/12/19 16:30:08;;;;;;;9.15;2.50;;;;;;;;;;5111475;28;20110;-27
2021/12/19 16:32:34;;;;;;;7.05;2.90;;;;;;;;;;5111600;28;20050;-26
2021/12/19 16:35:00;;;;;;;7.95;2.58;;;;;;;;;;5113302;28;20035;-27
2021/12/19 16:37:27;;;;;;;11.65;3.58;;;;;;;;;;5102453;28;20489;-27
2021/12/19 16:39:55;;;;;;;8.82;2.20;;;;;;;;;;5092613;28;20047;-30
2021/12/19 16:44:47;;;;;;;6.45;1.60;;;;;;;;;;5069255;28;20052;-30
2021/12/19 16:47:13;;;;;;;6.57;1.75;;;;;;;;;;5071298;28;20044;-30
2021/12/19 16:49:40;;;;;;;5.38;1.75;;;;;;;;;;5070569;28;20044;-28
2021/12/19 16:52:06;;;;;;;8.65;2.53;;;;;;;;;;5071076;28;20051;-29
2021/12/19 16:54:32;;;;;;;7.03;2.15;;;;;;;;;;5070533;28;20071;-28
2021/12/19 16:56:58;;;;;;;4.95;2.38;;;;;;;;;;5070518;28;20040;-29
2021/12/19 16:59:24;;;;;;;9.15;2.83;;;;;;;;;;5086415;28;20028;-28
2021/12/19 17:01:51;;;;;;;11.85;3.20;;;;;;;;;;5096985;28;20067;-28
2021/12/19 17:04:23;;;;;;;5.93;2.65;;;;;;;;;;5098126;28;20043;-28
2021/12/19 17:06:49;;;;;;;7.15;2.90;;;;;;;;;;5097756;28;20092;-29
2021/12/19 17:09:15;;;;;;;9.70;2.75;;;;;;;;;;5095037;28;20102;-30
2021/12/19 17:11:51;;;;;;;9.73;3.45;;;;;;;;;;5102139;28;20046;-30
2021/12/19 17:14:18;;;;;;;9.57;3.17;;;;;;;;;;5105458;28;20061;-29
2021/12/19 17:16:48;;;;;;;7.10;1.90;;;;;;;;;;5091488;28;20249;-30